Blooming Grove, Texas
Current Conditions -  °F | °C
As of 3:07 PM on Saturday 22 Nov 2014 (Local Time) from KCRS Reporting Station
Thunderstorm Thunderstorm  
Wind Chill: 17°   Ceiling: 1600
Heat Index: 17°   Visibility: 6mi
Dew Point: 14°   Wind: 8mph
Humidity: 84%   Direction: 170°S
Pressure: 29.9"   Gusts: NA
Location:  32.09°N, 96.72°W
Report Text: KCRS 222107Z AUTO 17007KT 6SM -TSRA OVC016 17/14 A2990 RMK AO2 LTG DSNT SE AND S TSB06 P0001 T01720144
Loading
Personal Weather Stations






























Interactive Weather Map New forecast layout! Learn more

10-Day Weather Forecast

Advertisements
Track Severe Weather on mobile